Latest Weather Observations for Omeo

IDV60801

Issued at 9:35 pm EST Wednesday 23 July 2014 (issued every 30 minutes, with the page automatically refreshed every 10 minutes)

About weather observations | Map of weather stations | Latest weather observations for VIC | Other Formats
Station Details ID: 083090 Name: OMEO Lat: -37.10 Lon: 147.60 Height: 689.8 m
Data from the previous 72 hours. | See also: Recent months at Omeo
Date/Time
EST
Temp
°C
App
Temp
°C
Dew
Point
Rel
Hum
%
Delta-T
°C
Wind Press
QNH
hPa
Press
MSL
hPa
Rain
since 9 am
mm
Dir
 
Spd
km/h
Gust
km/h
Spd
kts
Gust
kts
23/09:30pm 0.3 -1.7 -0.4 95 0.3 WNW 0 0 0 0 1021.7 - 0.0
23/09:00pm 0.8 -1.2 0.1 95 0.3 NNW 0 0 0 0 1021.6 1022.8 0.0
23/08:30pm 1.4 -0.5 0.5 94 0.3 CALM 0 0 0 0 1021.3 - 0.0
23/08:00pm 2.1 0.3 1.1 93 0.4 CALM 0 0 0 0 1021.2 1022.4 0.0
23/07:30pm 2.2 0.4 1.0 92 0.5 SSW 0 0 0 0 1021.0 - 0.0
23/07:00pm 2.8 1.0 1.5 91 0.5 CALM 0 0 0 0 1020.7 1022.0 0.0
23/06:30pm 3.8 2.1 1.8 87 0.8 CALM 0 0 0 0 1020.6 - 0.0
23/06:00pm 5.5 2.8 2.7 82 1.2 S 6 7 3 4 1020.5 1021.8 0.0
23/05:30pm 6.8 5.3 3.2 78 1.6 CALM 0 0 0 0 1020.2 - 0.0
23/05:00pm 8.3 6.9 3.6 72 2.1 CALM 0 0 0 0 1020.2 1021.4 0.0
23/04:30pm 10.0 8.7 4.0 66 2.8 CALM 0 4 0 2 1020.0 - 0.0
23/04:00pm 10.6 8.4 3.2 60 3.3 N 4 7 2 4 1020.0 1021.2 0.0
23/03:30pm 11.1 8.1 3.9 61 3.3 N 9 13 5 7 1020.0 - 0.0
23/03:00pm 10.4 6.4 3.0 60 3.3 N 13 17 7 9 1020.2 1021.4 0.0
23/02:30pm 10.3 6.6 2.4 58 3.5 N 11 17 6 9 1020.3 - 0.0
23/02:00pm 10.1 6.0 2.2 58 3.5 N 13 19 7 10 1020.4 1021.6 0.0
23/01:30pm 10.0 6.4 2.8 61 3.2 N 11 15 6 8 1020.7 - 0.0
23/01:00pm 9.0 5.2 1.9 61 3.1 N 11 15 6 8 1021.3 1022.5 0.0
23/12:30pm 8.2 3.5 1.1 61 3.0 N 15 19 8 10 1021.9 - 0.0
23/12:00pm 6.8 2.6 1.9 71 2.1 N 13 19 7 10 1022.5 1023.8 0.0
23/11:30am 5.0 0.8 1.5 78 1.4 N 13 17 7 9 1023.3 - 0.0
23/11:00am 3.6 -0.7 0.8 82 1.1 N 13 17 7 9 1024.0 1025.3 0.0
23/10:30am 2.5 -2.7 0.4 86 0.8 N 17 20 9 11 1024.5 - 0.0
23/10:00am 1.5 -3.4 -0.4 87 0.7 N 15 19 8 10 1024.6 1025.9 0.0
23/09:30am 0.2 -4.7 -0.5 95 0.3 N 15 19 8 10 1024.7 - 0.0
23/09:00am -0.4 -4.6 -0.7 98 0.1 N 11 19 6 10 1024.9 1026.2 0.0
23/08:30am -0.6 -4.4 -0.9 98 0.1 N 9 15 5 8 1024.9 - 0.0
23/08:00am -0.9 -5.5 -1.3 97 0.1 NNW 13 17 7 9 1024.7 1026.0 0.0
23/07:30am -0.8 -5.1 -1.5 95 0.2 N 11 15 6 8 1024.6 - 0.0
23/07:00am -0.3 -4.1 -0.7 97 0.1 NNW 9 17 5 9 1024.5 1025.8 0.0
23/06:30am -0.5 -4.4 -1.2 95 0.2 N 9 13 5 7 1024.3 - 0.0
23/06:00am -0.8 -5.5 -1.8 93 0.3 N 13 17 7 9 1024.0 1025.3 0.0
23/05:30am -0.3 -4.5 -0.6 98 0.1 N 11 17 6 9 1023.7 - 0.0
23/05:00am -0.3 -4.1 -0.7 97 0.1 N 9 17 5 9 1023.9 1025.2 0.0
23/04:30am 0.0 -4.1 -0.4 97 0.2 N 11 15 6 8 1023.9 - 0.0
23/04:00am 0.6 -3.1 0.2 97 0.2 N 9 15 5 8 1023.8 1025.1 0.0
23/03:30am 0.5 -2.6 -0.1 96 0.2 NNW 6 9 3 5 1023.6 - 0.0
23/03:00am 0.5 -2.8 -0.2 95 0.3 N 7 11 4 6 1023.7 1025.0 0.0
23/02:30am 0.3 -3.5 -0.7 93 0.4 NNW 9 11 5 6 1023.8 - 0.0
23/02:00am 0.6 -3.1 -0.3 94 0.3 N 9 15 5 8 1024.0 1025.3 0.0
23/01:30am 0.4 -3.3 -0.3 95 0.3 NNW 9 13 5 7 1024.5 - 0.0
23/01:00am 1.3 -1.7 0.7 96 0.2 NNW 6 11 3 6 1024.4 1025.7 0.0
23/12:30am 1.3 -1.7 0.9 97 0.2 W 6 9 3 5 1024.5 - 0.0
23/12:00am 1.1 -0.8 0.7 97 0.2 SW 0 0 0 0 1024.5 1025.8 0.0
 
Date/Time
EST
Temp
°C
App
Temp
°C
Dew
Point
Rel
Hum
%
Delta-T
°C
Wind Press
QNH
hPa
Press
MSL
hPa
Rain
since 9 am
mm
Dir
 
Spd
km/h
Gust
km/h
Spd
kts
Gust
kts
22/11:30pm 1.1 -0.8 0.5 96 0.2 CALM 0 9 0 5 1024.8 - 0.0
22/11:00pm 0.8 -1.6 -0.2 93 0.4 WSW 2 6 1 3 1024.9 1026.2 0.0
22/10:30pm 2.1 -0.1 0.9 92 0.5 S 2 7 1 4 1024.6 - 0.0
22/10:00pm 2.8 -0.3 1.2 89 0.6 SW 7 9 4 5 1024.7 1026.0 0.0
22/09:30pm 3.6 0.8 2.0 89 0.7 SSW 6 7 3 4 1024.7 - 0.0
22/09:00pm 3.7 0.7 2.1 89 0.7 SSW 7 11 4 6 1024.4 1025.7 0.0
22/08:30pm 3.3 0.5 2.0 91 0.5 WSW 6 7 3 4 1024.4 - 0.0
22/08:00pm 3.3 0.6 2.4 94 0.4 SW 6 11 3 6 1024.5 1025.8 0.0
22/07:30pm 2.1 0.3 1.1 93 0.4 CALM 0 0 0 0 1024.5 - 0.0
22/07:00pm 2.4 0.2 1.1 91 0.5 ESE 2 6 1 3 1024.3 1025.6 0.0
22/06:30pm 4.3 1.3 2.0 85 1.0 SSW 7 9 4 5 1024.1 - 0.0
22/06:00pm 4.5 1.8 2.4 86 0.9 SSE 6 9 3 5 1023.9 1025.2 0.0
22/05:30pm 5.2 2.4 2.0 80 1.3 SE 6 9 3 5 1023.6 - 0.0
22/05:00pm 6.4 3.1 2.7 77 1.6 SSE 9 13 5 7 1023.6 1024.9 0.0
22/04:30pm 8.3 4.7 3.2 70 2.3 SE 11 17 6 9 1023.4 - 0.0
22/04:00pm 9.4 5.9 3.4 66 2.7 SE 11 17 6 9 1023.4 1024.7 0.0
22/03:30pm 10.1 6.2 3.6 64 3.0 SE 13 20 7 11 1023.3 - 0.0
22/03:00pm 11.0 7.7 4.7 65 3.0 SE 11 19 6 10 1023.1 1024.4 0.0
22/02:30pm 10.4 6.8 3.2 61 3.3 SE 11 17 6 9 1023.0 - 0.0
22/02:00pm 10.4 7.7 2.5 58 3.5 SE 6 11 3 6 1023.0 1024.3 0.0
22/01:30pm 9.8 8.1 3.8 66 2.7 E 2 7 1 4 1023.2 - 0.0
22/01:00pm 8.3 6.2 3.9 74 2.0 N 4 6 2 3 1023.8 1025.1 0.0
22/12:30pm 6.4 4.1 2.5 76 1.7 N 4 9 2 5 1024.3 - 0.0
22/12:00pm 4.7 1.8 1.7 81 1.2 NE 6 7 3 4 1024.8 1026.1 0.0
22/11:30am 2.0 -1.0 1.1 94 0.4 NNE 6 9 3 5 1025.3 - 0.0
22/11:00am 0.8 -2.2 0.7 99 0.0 N 6 11 3 6 1025.9 1027.2 0.0
22/10:30am -0.1 -3.8 -0.2 99 0.0 N 9 13 5 7 1026.2 - 0.0
22/10:00am -1.0 -4.5 -1.1 99 0.0 N 7 9 4 5 1026.2 1027.5 0.0
22/09:30am -1.1 -4.6 -1.2 99 0.0 N 7 13 4 7 1026.3 - 0.0
22/09:00am -1.1 -4.0 -1.2 99 0.0 N 4 11 2 6 1026.3 1027.6 0.0
22/08:30am -1.3 -4.2 -1.4 99 0.0 NNE 4 9 2 5 1026.1 - 0.0
22/08:00am -1.2 -3.4 -1.3 99 0.0 CALM 0 0 0 0 1025.7 1027.1 0.0
22/07:30am -1.2 -3.4 -1.5 98 0.1 CALM 0 0 0 0 1025.4 - 0.0
22/07:00am -1.6 -3.8 -1.9 98 0.0 CALM 0 0 0 0 1025.1 1026.4 0.0
22/06:30am -1.6 -3.8 -1.9 98 0.0 CALM 0 0 0 0 1024.8 - 0.0
22/06:00am -1.7 -4.0 -2.0 98 0.0 CALM 0 0 0 0 1024.5 1025.8 0.0
22/05:30am -1.8 -4.1 -2.1 98 0.0 CALM 0 0 0 0 1024.3 - 0.0
22/05:00am -1.8 -4.1 -2.1 98 0.0 CALM 0 0 0 0 1024.0 1025.3 0.0
22/04:30am -1.4 -4.8 -1.7 98 0.0 NW 6 7 3 4 1023.9 - 0.0
22/04:00am -1.3 -3.5 -1.6 98 0.0 CALM 0 0 0 0 1023.9 1025.2 0.0
22/03:30am -1.0 -3.2 -1.3 98 0.1 CALM 0 0 0 0 1024.0 - 0.0
22/03:00am -1.0 -3.2 -1.3 98 0.1 CALM 0 0 0 0 1024.0 1025.3 0.0
22/02:30am -1.5 -3.7 -1.9 97 0.1 CALM 0 0 0 0 1024.3 - 0.0
22/02:00am -1.1 -3.3 -1.4 98 0.1 CALM 0 0 0 0 1024.3 1025.6 0.0
22/01:30am -0.9 -3.1 -1.3 97 0.1 CALM 0 0 0 0 1024.3 - 0.0
22/01:00am -0.8 -3.0 -1.2 97 0.1 CALM 0 0 0 0 1024.3 1025.6 0.0
22/12:30am -0.3 -2.4 -0.9 96 0.2 CALM 0 0 0 0 1024.3 - 0.0
22/12:00am 0.3 -1.7 -0.3 96 0.2 CALM 0 0 0 0 1024.3 1025.6 0.0
 
Date/Time
EST
Temp
°C
App
Temp
°C
Dew
Point
Rel
Hum
%
Delta-T
°C
Wind Press
QNH
hPa
Press
MSL
hPa
Rain
since 9 am
mm
Dir
 
Spd
km/h
Gust
km/h
Spd
kts
Gust
kts
21/11:30pm 0.7 -2.0 0.0 95 0.3 SE 4 6 2 3 1024.3 - 0.0
21/11:00pm 1.3 -0.6 0.4 94 0.3 CALM 0 0 0 0 1024.5 1025.8 0.0
21/10:30pm 2.5 0.8 1.6 94 0.4 CALM 0 0 0 0 1024.6 - 0.0
21/10:00pm 3.0 0.2 2.1 94 0.4 SSE 6 7 3 4 1024.6 1025.9 0.0
21/09:30pm 3.1 0.3 1.9 92 0.5 SE 6 7 3 4 1024.8 - 0.0
21/09:00pm 3.6 0.8 2.3 91 0.5 SSE 6 7 3 4 1024.8 1026.1 0.0
21/08:30pm 4.0 2.3 2.0 87 0.8 CALM 0 6 0 3 1024.7 - 0.0
21/08:00pm 4.7 1.8 2.7 87 0.8 S 7 11 4 6 1024.6 1025.9 0.0
21/07:30pm 4.9 1.7 2.8 86 0.9 S 9 15 5 8 1024.6 - 0.0
21/07:00pm 5.0 1.7 2.7 85 1.0 S 9 13 5 7 1024.4 1025.7 0.0
21/06:30pm 5.2 1.9 2.6 83 1.1 SSW 9 13 5 7 1024.1 - 0.0
21/06:00pm 5.5 2.5 2.3 80 1.3 SSW 7 9 4 5 1023.8 1025.1 0.0
21/05:30pm 5.6 1.6 2.6 81 1.3 SE 13 19 7 10 1023.5 - 0.0
21/05:00pm 6.6 2.6 2.9 77 1.6 SE 13 20 7 11 1023.3 1024.6 0.0
21/04:30pm 8.3 4.1 1.9 64 2.8 SE 13 17 7 9 1023.2 - 0.0
21/04:00pm 10.2 7.8 -0.3 48 4.4 NE 2 7 1 4 1022.9 1024.1 0.0
21/03:30pm 10.3 7.2 1.2 53 3.9 NNW 7 11 4 6 1022.6 - 0.0
21/03:00pm 10.5 7.4 0.0 48 4.4 NNW 6 11 3 6 1022.5 1023.8 0.0
21/02:30pm 10.5 7.0 1.1 52 4.1 N 9 13 5 7 1022.5 - 0.0
21/02:00pm 9.5 6.5 1.9 59 3.3 NNW 7 13 4 7 1022.9 1024.1 0.0
21/01:30pm 7.9 4.1 2.0 66 2.5 N 11 15 6 8 1023.2 - 0.0
21/01:00pm 7.0 2.8 1.7 69 2.2 N 13 19 7 10 1023.6 1024.9 0.0
21/12:30pm 7.4 3.3 2.1 69 2.3 N 13 22 7 12 1024.0 - 0.0
21/12:00pm 6.9 3.3 2.8 75 1.8 N 11 15 6 8 1024.4 1025.7 0.0
21/11:30am 5.1 1.4 2.6 84 1.1 N 11 15 6 8 1025.0 - 0.0
21/11:00am 5.2 1.5 2.6 83 1.1 N 11 15 6 8 1025.3 1026.6 0.0
21/10:30am 3.6 -0.2 1.5 86 0.9 N 11 17 6 9 1025.5 - 0.0
21/10:00am 2.4 -1.5 1.1 91 0.5 N 11 15 6 8 1025.7 1027.1 0.0
21/09:30am 1.4 -2.6 0.7 95 0.3 N 11 17 6 9 1026.0 - 0.0
21/09:00am 0.7 -3.7 0.6 99 0.0 N 13 17 7 9 1026.0 1027.3 0.0
21/08:30am 0.6 -3.4 0.3 98 0.1 N 11 17 6 9 1026.0 - 0.0
21/08:00am 0.7 -2.9 0.4 98 0.1 N 9 13 5 7 1025.9 1027.2 0.0
21/07:30am 0.5 -3.2 0.1 97 0.2 N 9 15 5 8 1026.0 - 0.0
21/07:00am 0.9 -3.1 0.5 97 0.2 N 11 15 6 8 1025.7 1027.1 0.0
21/06:30am 1.3 -2.3 0.7 96 0.2 N 9 13 5 7 1025.4 - 0.0
21/06:00am 1.6 -2.0 0.7 94 0.3 N 9 13 5 7 1025.3 1026.6 0.0
21/05:30am 2.0 -1.1 1.1 94 0.4 N 7 13 4 7 1025.3 - 0.0
21/05:00am 2.2 -1.7 1.3 94 0.4 N 11 17 6 9 1025.2 1026.5 0.0
21/04:30am 2.1 -1.4 1.4 95 0.3 N 9 13 5 7 1025.1 - 0.0
21/04:00am 2.3 -0.8 1.4 94 0.4 N 7 11 4 6 1025.0 1026.3 0.0
21/03:30am 2.4 -0.1 1.5 94 0.4 N 4 7 2 4 1025.2 - 0.0
21/03:00am 2.5 0.7 1.5 93 0.4 CALM 0 6 0 3 1025.2 1026.5 0.0
21/02:30am 2.5 -0.4 1.5 93 0.4 NW 6 7 3 4 1025.4 - 0.0
21/02:00am 2.7 -0.2 1.7 93 0.4 N 6 7 3 4 1025.5 1026.9 0.0
21/01:30am 2.9 0.1 1.9 93 0.4 N 6 7 3 4 1025.6 - 0.0
21/01:00am 2.9 0.0 1.7 92 0.5 N 6 9 3 5 1025.7 1027.1 0.0
21/12:30am 2.9 0.0 1.6 91 0.5 N 6 9 3 5 1025.7 - 0.0
21/12:00am 3.3 1.6 1.8 90 0.6 CALM 0 0 0 0 1026.1 1027.4 0.0
 
Date/Time
EST
Temp
°C
App
Temp
°C
Dew
Point
Rel
Hum
%
Delta-T
°C
Wind Press
QNH
hPa
Press
MSL
hPa
Rain
since 9 am
mm
Dir
 
Spd
km/h
Gust
km/h
Spd
kts
Gust
kts
20/11:30pm 3.3 1.6 2.0 91 0.5 CALM 0 0 0 0 1026.2 - 0.0
20/11:00pm 3.2 1.5 1.9 91 0.5 CALM 0 0 0 0 1026.4 1027.7 0.0
20/10:30pm 3.0 1.3 1.7 91 0.5 CALM 0 0 0 0 1026.3 - 0.0
20/10:00pm 3.1 1.4 2.1 93 0.4 CALM 0 0 0 0 1026.3 1027.6 0.0

Other Formats:

Comma delimited format used in spreadsheet applications
http://www.bom.gov.au/fwo/IDV60801/IDV60801.94908.axf

JavaScript Object Notation format (JSON) in row-major order
http://www.bom.gov.au/fwo/IDV60801/IDV60801.94908.json